sensor_id;sensor_type;location;lat;lon;timestamp;pressure;altitude;pressure_sealevel;temperature;humidity
10946;BME280;5525;42.648;23.368;2022-12-07T00:01:29;94710.44;;;5.94;100.00
10946;BME280;5525;42.648;23.368;2022-12-07T00:03:58;94688.50;;;5.74;100.00
10946;BME280;5525;42.648;23.368;2022-12-07T00:06:32;94705.69;;;5.54;100.00
10946;BME280;5525;42.648;23.368;2022-12-07T00:09:00;94719.19;;;5.81;100.00
10946;BME280;5525;42.648;23.368;2022-12-07T00:11:27;94707.25;;;5.55;100.00
10946;BME280;5525;42.648;23.368;2022-12-07T00:13:55;94718.53;;;5.71;100.00
10946;BME280;5525;42.648;23.368;2022-12-07T00:16:25;94642.66;;;5.43;100.00
10946;BME280;5525;42.648;23.368;2022-12-07T00:18:53;94650.53;;;5.53;100.00
10946;BME280;5525;42.648;23.368;2022-12-07T00:21:21;94706.66;;;5.95;100.00
10946;BME280;5525;42.648;23.368;2022-12-07T00:23:52;94691.66;;;5.94;100.00
10946;BME280;5525;42.648;23.368;2022-12-07T00:26:21;94708.63;;;5.90;100.00
10946;BME280;5525;42.648;23.368;2022-12-07T00:28:50;94682.53;;;5.77;100.00
10946;BME280;5525;42.648;23.368;2022-12-07T00:31:20;94692.56;;;5.90;100.00
10946;BME280;5525;42.648;23.368;2022-12-07T00:33:47;94706.84;;;5.85;100.00
10946;BME280;5525;42.648;23.368;2022-12-07T00:36:16;94711.03;;;5.91;100.00
10946;BME280;5525;42.648;23.368;2022-12-07T00:38:43;94650.94;;;5.28;100.00
10946;BME280;5525;42.648;23.368;2022-12-07T00:41:14;94686.22;;;5.67;100.00
10946;BME280;5525;42.648;23.368;2022-12-07T00:43:44;94692.50;;;5.58;100.00
10946;BME280;5525;42.648;23.368;2022-12-07T00:46:12;94706.91;;;5.43;100.00
10946;BME280;5525;42.648;23.368;2022-12-07T00:48:40;94675.16;;;5.37;100.00
10946;BME280;5525;42.648;23.368;2022-12-07T00:51:07;94650.22;;;5.22;100.00
10946;BME280;5525;42.648;23.368;2022-12-07T00:53:35;94684.13;;;5.46;100.00
10946;BME280;5525;42.648;23.368;2022-12-07T00:56:05;94696.72;;;5.64;100.00
10946;BME280;5525;42.648;23.368;2022-12-07T00:58:34;94699.72;;;5.76;100.00
10946;BME280;5525;42.648;23.368;2022-12-07T01:01:02;94640.16;;;5.65;100.00
10946;BME280;5525;42.648;23.368;2022-12-07T01:03:30;94657.75;;;5.71;100.00
10946;BME280;5525;42.648;23.368;2022-12-07T01:05:57;94681.63;;;5.86;100.00
10946;BME280;5525;42.648;23.368;2022-12-07T01:08:26;94668.22;;;5.68;100.00
10946;BME280;5525;42.648;23.368;2022-12-07T01:10:58;94697.75;;;5.81;100.00
10946;BME280;5525;42.648;23.368;2022-12-07T01:13:25;94636.72;;;5.46;100.00
10946;BME280;5525;42.648;23.368;2022-12-07T01:15:59;94689.81;;;5.76;100.00
10946;BME280;5525;42.648;23.368;2022-12-07T01:18:26;94695.16;;;5.76;100.00
10946;BME280;5525;42.648;23.368;2022-12-07T01:20:59;94691.69;;;5.76;100.00
10946;BME280;5525;42.648;23.368;2022-12-07T01:23:28;94688.88;;;5.67;100.00
10946;BME280;5525;42.648;23.368;2022-12-07T01:25:56;94608.94;;;5.10;100.00
10946;BME280;5525;42.648;23.368;2022-12-07T01:28:23;94654.28;;;5.52;100.00
10946;BME280;5525;42.648;23.368;2022-12-07T01:31:00;94634.56;;;5.30;100.00
10946;BME280;5525;42.648;23.368;2022-12-07T01:33:28;94657.19;;;5.56;100.00
10946;BME280;5525;42.648;23.368;2022-12-07T01:36:01;94665.25;;;5.69;100.00
10946;BME280;5525;42.648;23.368;2022-12-07T01:38:30;94667.28;;;5.77;100.00
10946;BME280;5525;42.648;23.368;2022-12-07T01:40:57;94655.72;;;5.63;100.00
10946;BME280;5525;42.648;23.368;2022-12-07T01:43:27;94677.16;;;5.45;100.00
10946;BME280;5525;42.648;23.368;2022-12-07T01:46:04;94637.03;;;5.26;100.00
10946;BME280;5525;42.648;23.368;2022-12-07T01:48:35;94681.16;;;5.66;100.00
10946;BME280;5525;42.648;23.368;2022-12-07T01:51:09;94688.38;;;5.65;100.00
10946;BME280;5525;42.648;23.368;2022-12-07T01:53:41;94655.16;;;5.48;100.00
10946;BME280;5525;42.648;23.368;2022-12-07T01:56:12;94677.03;;;5.55;100.00
10946;BME280;5525;42.648;23.368;2022-12-07T01:58:43;94669.13;;;5.45;100.00
10946;BME280;5525;42.648;23.368;2022-12-07T02:01:13;94642.69;;;5.24;100.00
10946;BME280;5525;42.648;23.368;2022-12-07T02:03:42;94651.78;;;5.42;100.00
10946;BME280;5525;42.648;23.368;2022-12-07T02:06:12;94631.25;;;5.38;100.00
10946;BME280;5525;42.648;23.368;2022-12-07T02:08:40;94662.53;;;5.56;100.00
10946;BME280;5525;42.648;23.368;2022-12-07T02:11:09;94612.47;;;5.24;100.00
10946;BME280;5525;42.648;23.368;2022-12-07T02:13:38;94615.19;;;5.38;100.00
10946;BME280;5525;42.648;23.368;2022-12-07T02:16:16;94653.13;;;5.58;100.00
10946;BME280;5525;42.648;23.368;2022-12-07T02:19:01;94668.16;;;5.22;100.00
10946;BME280;5525;42.648;23.368;2022-12-07T02:21:39;94656.84;;;4.88;100.00
10946;BME280;5525;42.648;23.368;2022-12-07T02:24:36;94623.22;;;4.63;100.00
10946;BME280;5525;42.648;23.368;2022-12-07T02:27:26;94663.16;;;4.97;100.00
10946;BME280;5525;42.648;23.368;2022-12-07T02:30:00;94632.50;;;5.08;100.00
10946;BME280;5525;42.648;23.368;2022-12-07T02:32:37;94604.00;;;4.98;100.00
10946;BME280;5525;42.648;23.368;2022-12-07T02:35:09;94649.84;;;5.29;100.00
10946;BME280;5525;42.648;23.368;2022-12-07T02:37:42;94602.19;;;5.12;100.00
10946;BME280;5525;42.648;23.368;2022-12-07T02:40:15;94624.78;;;5.39;100.00
10946;BME280;5525;42.648;23.368;2022-12-07T02:42:49;94599.94;;;5.19;100.00
10946;BME280;5525;42.648;23.368;2022-12-07T02:45:25;94631.69;;;5.58;100.00
10946;BME280;5525;42.648;23.368;2022-12-07T02:47:56;94573.50;;;4.99;100.00
10946;BME280;5525;42.648;23.368;2022-12-07T02:50:27;94650.97;;;5.42;100.00
10946;BME280;5525;42.648;23.368;2022-12-07T02:52:54;94630.69;;;5.22;100.00
10946;BME280;5525;42.648;23.368;2022-12-07T02:55:28;94650.00;;;5.19;100.00
10946;BME280;5525;42.648;23.368;2022-12-07T02:58:10;94632.22;;;5.09;100.00
10946;BME280;5525;42.648;23.368;2022-12-07T03:00:50;94587.47;;;4.78;100.00
10946;BME280;5525;42.648;23.368;2022-12-07T03:03:19;94590.78;;;4.88;100.00
10946;BME280;5525;42.648;23.368;2022-12-07T03:05:54;94588.41;;;4.87;100.00
10946;BME280;5525;42.648;23.368;2022-12-07T03:08:33;94626.50;;;5.16;100.00
10946;BME280;5525;42.648;23.368;2022-12-07T03:11:05;94594.41;;;4.97;100.00
10946;BME280;5525;42.648;23.368;2022-12-07T03:13:34;94579.66;;;4.81;100.00
10946;BME280;5525;42.648;23.368;2022-12-07T03:16:12;94622.66;;;4.85;100.00
10946;BME280;5525;42.648;23.368;2022-12-07T03:18:45;94597.44;;;4.91;100.00
10946;BME280;5525;42.648;23.368;2022-12-07T03:21:18;94572.13;;;4.83;100.00
10946;BME280;5525;42.648;23.368;2022-12-07T03:23:51;94608.47;;;4.84;100.00
10946;BME280;5525;42.648;23.368;2022-12-07T03:26:25;94628.03;;;5.03;100.00
10946;BME280;5525;42.648;23.368;2022-12-07T03:29:00;94600.31;;;4.76;100.00
10946;BME280;5525;42.648;23.368;2022-12-07T03:31:32;94595.97;;;4.61;100.00
10946;BME280;5525;42.648;23.368;2022-12-07T03:34:05;94621.72;;;4.76;100.00
10946;BME280;5525;42.648;23.368;2022-12-07T03:36:37;94631.56;;;4.80;100.00
10946;BME280;5525;42.648;23.368;2022-12-07T03:39:14;94620.03;;;4.61;100.00
10946;BME280;5525;42.648;23.368;2022-12-07T03:41:43;94563.88;;;4.24;100.00
10946;BME280;5525;42.648;23.368;2022-12-07T03:44:11;94589.66;;;4.34;100.00
10946;BME280;5525;42.648;23.368;2022-12-07T03:46:45;94630.66;;;4.48;100.00
10946;BME280;5525;42.648;23.368;2022-12-07T03:49:20;94556.25;;;4.13;100.00
10946;BME280;5525;42.648;23.368;2022-12-07T03:51:54;94624.56;;;4.42;100.00
10946;BME280;5525;42.648;23.368;2022-12-07T03:54:28;94615.50;;;4.62;100.00
10946;BME280;5525;42.648;23.368;2022-12-07T03:56:58;94607.84;;;4.74;100.00
10946;BME280;5525;42.648;23.368;2022-12-07T03:59:26;94567.59;;;4.65;100.00
10946;BME280;5525;42.648;23.368;2022-12-07T04:02:01;94618.25;;;4.75;100.00
10946;BME280;5525;42.648;23.368;2022-12-07T04:04:29;94558.31;;;4.39;100.00
10946;BME280;5525;42.648;23.368;2022-12-07T04:06:57;94618.53;;;4.92;100.00
10946;BME280;5525;42.648;23.368;2022-12-07T04:09:24;94616.38;;;4.76;100.00
10946;BME280;5525;42.648;23.368;2022-12-07T04:11:51;94619.56;;;4.78;100.00
10946;BME280;5525;42.648;23.368;2022-12-07T04:14:18;94585.94;;;4.53;100.00
10946;BME280;5525;42.648;23.368;2022-12-07T04:16:45;94551.19;;;4.35;100.00
10946;BME280;5525;42.648;23.368;2022-12-07T04:19:15;94548.50;;;4.35;100.00
10946;BME280;5525;42.648;23.368;2022-12-07T04:21:43;94609.88;;;4.82;100.00
10946;BME280;5525;42.648;23.368;2022-12-07T04:24:11;94605.81;;;4.84;100.00
10946;BME280;5525;42.648;23.368;2022-12-07T04:26:38;94612.78;;;4.85;100.00
10946;BME280;5525;42.648;23.368;2022-12-07T04:29:06;94616.09;;;4.77;100.00
10946;BME280;5525;42.648;23.368;2022-12-07T04:31:34;94580.19;;;4.41;100.00
10946;BME280;5525;42.648;23.368;2022-12-07T04:34:01;94621.94;;;4.79;100.00
10946;BME280;5525;42.648;23.368;2022-12-07T04:36:30;94612.41;;;4.73;100.00
10946;BME280;5525;42.648;23.368;2022-12-07T04:38:58;94619.47;;;4.46;100.00
10946;BME280;5525;42.648;23.368;2022-12-07T04:41:25;94623.00;;;4.60;100.00
10946;BME280;5525;42.648;23.368;2022-12-07T04:43:56;94604.66;;;4.53;100.00
10946;BME280;5525;42.648;23.368;2022-12-07T04:46:24;94628.47;;;4.73;100.00
10946;BME280;5525;42.648;23.368;2022-12-07T04:48:55;94601.03;;;4.63;100.00
10946;BME280;5525;42.648;23.368;2022-12-07T04:51:24;94616.59;;;4.79;100.00
10946;BME280;5525;42.648;23.368;2022-12-07T04:53:54;94630.38;;;4.68;100.00
10946;BME280;5525;42.648;23.368;2022-12-07T04:56:23;94605.22;;;4.50;100.00
10946;BME280;5525;42.648;23.368;2022-12-07T04:58:52;94632.28;;;4.67;100.00
10946;BME280;5525;42.648;23.368;2022-12-07T05:01:22;94612.16;;;4.51;100.00
10946;BME280;5525;42.648;23.368;2022-12-07T05:03:51;94587.22;;;4.37;100.00
10946;BME280;5525;42.648;23.368;2022-12-07T05:06:19;94595.75;;;4.39;100.00
10946;BME280;5525;42.648;23.368;2022-12-07T05:08:46;94629.28;;;4.50;100.00
10946;BME280;5525;42.648;23.368;2022-12-07T05:11:15;94633.31;;;4.48;100.00
10946;BME280;5525;42.648;23.368;2022-12-07T05:13:56;94630.16;;;4.46;100.00
10946;BME280;5525;42.648;23.368;2022-12-07T05:16:23;94626.78;;;4.35;100.00
10946;BME280;5525;42.648;23.368;2022-12-07T05:18:51;94615.22;;;4.21;100.00
10946;BME280;5525;42.648;23.368;2022-12-07T05:21:18;94590.69;;;3.67;100.00
10946;BME280;5525;42.648;23.368;2022-12-07T05:23:47;94566.59;;;3.48;100.00
10946;BME280;5525;42.648;23.368;2022-12-07T05:26:18;94624.19;;;4.07;100.00
10946;BME280;5525;42.648;23.368;2022-12-07T05:28:51;94565.22;;;3.80;100.00
10946;BME280;5525;42.648;23.368;2022-12-07T05:31:18;94590.75;;;4.09;100.00
10946;BME280;5525;42.648;23.368;2022-12-07T05:33:45;94628.84;;;4.43;100.00
10946;BME280;5525;42.648;23.368;2022-12-07T05:36:13;94593.84;;;4.21;100.00
10946;BME280;5525;42.648;23.368;2022-12-07T05:38:42;94624.28;;;4.44;100.00
10946;BME280;5525;42.648;23.368;2022-12-07T05:41:13;94588.41;;;4.26;100.00
10946;BME280;5525;42.648;23.368;2022-12-07T05:43:56;94569.88;;;4.35;100.00
10946;BME280;5525;42.648;23.368;2022-12-07T05:46:26;94569.03;;;4.39;100.00
10946;BME280;5525;42.648;23.368;2022-12-07T05:48:53;94549.06;;;4.32;100.00
10946;BME280;5525;42.648;23.368;2022-12-07T05:51:20;94623.94;;;4.87;100.00
10946;BME280;5525;42.648;23.368;2022-12-07T05:53:49;94611.16;;;4.84;100.00
10946;BME280;5525;42.648;23.368;2022-12-07T05:56:17;94614.28;;;4.91;100.00
10946;BME280;5525;42.648;23.368;2022-12-07T05:58:45;94593.59;;;4.78;100.00
10946;BME280;5525;42.648;23.368;2022-12-07T06:01:31;94572.78;;;4.57;100.00
10946;BME280;5525;42.648;23.368;2022-12-07T06:03:59;94615.38;;;4.90;100.00
10946;BME280;5525;42.648;23.368;2022-12-07T06:06:26;94620.22;;;5.07;100.00
10946;BME280;5525;42.648;23.368;2022-12-07T06:08:57;94617.72;;;5.10;100.00
10946;BME280;5525;42.648;23.368;2022-12-07T06:11:28;94570.84;;;4.81;100.00
10946;BME280;5525;42.648;23.368;2022-12-07T06:14:12;94565.22;;;4.82;100.00
10946;BME280;5525;42.648;23.368;2022-12-07T06:16:42;94632.38;;;5.18;100.00
10946;BME280;5525;42.648;23.368;2022-12-07T06:19:10;94623.09;;;5.10;100.00
10946;BME280;5525;42.648;23.368;2022-12-07T06:21:37;94582.19;;;4.91;100.00
10946;BME280;5525;42.648;23.368;2022-12-07T06:24:05;94630.91;;;5.26;100.00
10946;BME280;5525;42.648;23.368;2022-12-07T06:26:35;94590.97;;;5.10;100.00
10946;BME280;5525;42.648;23.368;2022-12-07T06:29:07;94590.25;;;5.05;100.00
10946;BME280;5525;42.648;23.368;2022-12-07T06:31:36;94564.25;;;4.92;100.00
10946;BME280;5525;42.648;23.368;2022-12-07T06:34:06;94606.84;;;5.39;100.00
10946;BME280;5525;42.648;23.368;2022-12-07T06:36:35;94554.75;;;5.18;100.00
10946;BME280;5525;42.648;23.368;2022-12-07T06:39:03;94582.56;;;5.17;100.00
10946;BME280;5525;42.648;23.368;2022-12-07T06:41:30;94575.75;;;5.24;100.00
10946;BME280;5525;42.648;23.368;2022-12-07T06:43:59;94619.53;;;5.66;100.00
10946;BME280;5525;42.648;23.368;2022-12-07T06:46:26;94632.53;;;5.72;100.00
10946;BME280;5525;42.648;23.368;2022-12-07T06:48:54;94609.00;;;5.69;100.00
10946;BME280;5525;42.648;23.368;2022-12-07T06:51:26;94594.31;;;5.53;100.00
10946;BME280;5525;42.648;23.368;2022-12-07T06:53:55;94637.25;;;5.62;100.00
10946;BME280;5525;42.648;23.368;2022-12-07T06:56:25;94602.88;;;5.69;100.00
10946;BME280;5525;42.648;23.368;2022-12-07T06:58:54;94636.97;;;5.95;100.00
10946;BME280;5525;42.648;23.368;2022-12-07T07:01:23;94615.84;;;5.94;100.00
10946;BME280;5525;42.648;23.368;2022-12-07T07:03:52;94621.31;;;6.02;100.00
10946;BME280;5525;42.648;23.368;2022-12-07T07:06:19;94646.84;;;6.13;100.00
10946;BME280;5525;42.648;23.368;2022-12-07T07:08:51;94562.38;;;5.89;100.00
10946;BME280;5525;42.648;23.368;2022-12-07T07:11:19;94573.75;;;5.94;100.00
10946;BME280;5525;42.648;23.368;2022-12-07T07:13:46;94631.16;;;6.61;100.00
10946;BME280;5525;42.648;23.368;2022-12-07T07:16:14;94633.03;;;6.74;100.00
10946;BME280;5525;42.648;23.368;2022-12-07T07:18:41;94638.09;;;6.75;100.00
10946;BME280;5525;42.648;23.368;2022-12-07T07:21:08;94627.06;;;6.77;100.00
10946;BME280;5525;42.648;23.368;2022-12-07T07:23:35;94635.34;;;6.67;100.00
10946;BME280;5525;42.648;23.368;2022-12-07T07:26:04;94618.03;;;6.05;100.00
10946;BME280;5525;42.648;23.368;2022-12-07T07:28:31;94628.78;;;6.19;100.00
10946;BME280;5525;42.648;23.368;2022-12-07T07:30:58;94590.88;;;5.80;100.00
10946;BME280;5525;42.648;23.368;2022-12-07T07:33:25;94615.66;;;6.04;100.00
10946;BME280;5525;42.648;23.368;2022-12-07T07:35:52;94604.38;;;5.75;100.00
10946;BME280;5525;42.648;23.368;2022-12-07T07:38:19;94642.09;;;6.37;100.00
10946;BME280;5525;42.648;23.368;2022-12-07T07:40:46;94602.06;;;6.41;100.00
10946;BME280;5525;42.648;23.368;2022-12-07T07:43:16;94654.41;;;6.65;100.00
10946;BME280;5525;42.648;23.368;2022-12-07T07:45:44;94630.84;;;6.49;100.00
10946;BME280;5525;42.648;23.368;2022-12-07T07:48:10;94581.97;;;6.52;100.00
10946;BME280;5525;42.648;23.368;2022-12-07T07:50:40;94609.41;;;6.98;100.00
10946;BME280;5525;42.648;23.368;2022-12-07T07:53:06;94617.06;;;7.05;100.00
10946;BME280;5525;42.648;23.368;2022-12-07T07:55:34;94641.47;;;7.30;100.00
10946;BME280;5525;42.648;23.368;2022-12-07T07:58:03;94590.13;;;7.32;100.00
10946;BME280;5525;42.648;23.368;2022-12-07T08:00:32;94628.69;;;7.80;100.00
10946;BME280;5525;42.648;23.368;2022-12-07T08:03:00;94620.94;;;7.78;100.00
10946;BME280;5525;42.648;23.368;2022-12-07T08:05:27;94610.56;;;7.85;100.00
10946;BME280;5525;42.648;23.368;2022-12-07T08:07:54;94629.00;;;8.31;100.00
10946;BME280;5525;42.648;23.368;2022-12-07T08:10:21;94593.47;;;8.20;100.00
10946;BME280;5525;42.648;23.368;2022-12-07T08:12:48;94642.75;;;8.29;100.00
10946;BME280;5525;42.648;23.368;2022-12-07T08:15:38;94637.13;;;8.48;100.00
10946;BME280;5525;42.648;23.368;2022-12-07T08:18:06;94571.38;;;7.93;100.00
10946;BME280;5525;42.648;23.368;2022-12-07T08:20:35;94642.53;;;8.48;100.00
10946;BME280;5525;42.648;23.368;2022-12-07T08:23:04;94585.88;;;7.83;100.00
10946;BME280;5525;42.648;23.368;2022-12-07T08:25:32;94620.41;;;7.98;100.00
10946;BME280;5525;42.648;23.368;2022-12-07T08:28:00;94635.69;;;8.42;100.00
10946;BME280;5525;42.648;23.368;2022-12-07T08:30:28;94633.63;;;8.39;100.00
10946;BME280;5525;42.648;23.368;2022-12-07T08:32:57;94614.13;;;8.03;100.00
10946;BME280;5525;42.648;23.368;2022-12-07T08:35:24;94634.13;;;7.88;100.00
10946;BME280;5525;42.648;23.368;2022-12-07T08:37:52;94612.19;;;7.95;100.00
10946;BME280;5525;42.648;23.368;2022-12-07T08:40:20;94579.78;;;7.03;100.00
10946;BME280;5525;42.648;23.368;2022-12-07T08:42:50;94640.50;;;7.70;100.00
10946;BME280;5525;42.648;23.368;2022-12-07T08:45:18;94610.34;;;7.73;100.00
10946;BME280;5525;42.648;23.368;2022-12-07T08:47:52;94635.78;;;7.76;100.00
10946;BME280;5525;42.648;23.368;2022-12-07T08:50:23;94624.31;;;7.84;100.00
10946;BME280;5525;42.648;23.368;2022-12-07T08:52:55;94634.34;;;8.22;100.00
10946;BME280;5525;42.648;23.368;2022-12-07T08:55:24;94629.06;;;8.48;100.00
10946;BME280;5525;42.648;23.368;2022-12-07T08:57:52;94640.06;;;8.69;100.00
10946;BME280;5525;42.648;23.368;2022-12-07T09:00:21;94623.03;;;8.99;100.00
10946;BME280;5525;42.648;23.368;2022-12-07T09:02:48;94592.34;;;8.43;100.00
10946;BME280;5525;42.648;23.368;2022-12-07T09:05:19;94622.81;;;8.78;100.00
10946;BME280;5525;42.648;23.368;2022-12-07T09:07:51;94622.19;;;8.81;100.00
10946;BME280;5525;42.648;23.368;2022-12-07T09:10:19;94605.41;;;8.84;100.00
10946;BME280;5525;42.648;23.368;2022-12-07T09:12:46;94580.91;;;8.38;100.00
10946;BME280;5525;42.648;23.368;2022-12-07T09:15:13;94613.84;;;8.43;100.00
10946;BME280;5525;42.648;23.368;2022-12-07T09:17:40;94568.25;;;8.30;100.00
10946;BME280;5525;42.648;23.368;2022-12-07T09:20:07;94600.50;;;8.86;100.00
10946;BME280;5525;42.648;23.368;2022-12-07T09:22:35;94582.28;;;8.75;100.00
10946;BME280;5525;42.648;23.368;2022-12-07T09:25:06;94591.22;;;9.26;100.00
10946;BME280;5525;42.648;23.368;2022-12-07T09:27:33;94549.69;;;9.02;100.00
10946;BME280;5525;42.648;23.368;2022-12-07T09:30:05;94547.00;;;9.19;100.00
10946;BME280;5525;42.648;23.368;2022-12-07T09:32:32;94582.50;;;9.21;100.00
10946;BME280;5525;42.648;23.368;2022-12-07T09:34:59;94565.69;;;9.32;100.00
10946;BME280;5525;42.648;23.368;2022-12-07T09:37:26;94535.72;;;8.74;100.00
10946;BME280;5525;42.648;23.368;2022-12-07T09:40:00;94555.84;;;8.77;100.00
10946;BME280;5525;42.648;23.368;2022-12-07T09:42:42;94579.13;;;8.98;100.00
10946;BME280;5525;42.648;23.368;2022-12-07T09:45:15;94576.00;;;9.22;100.00
10946;BME280;5525;42.648;23.368;2022-12-07T09:47:45;94558.41;;;9.16;100.00
10946;BME280;5525;42.648;23.368;2022-12-07T09:50:14;94571.06;;;8.98;100.00
10946;BME280;5525;42.648;23.368;2022-12-07T09:52:43;94538.75;;;9.41;100.00
10946;BME280;5525;42.648;23.368;2022-12-07T09:55:14;94555.19;;;9.65;100.00
10946;BME280;5525;42.648;23.368;2022-12-07T09:57:43;94574.34;;;9.80;100.00
10946;BME280;5525;42.648;23.368;2022-12-07T10:00:14;94567.06;;;9.81;100.00
10946;BME280;5525;42.648;23.368;2022-12-07T10:02:43;94533.47;;;9.70;100.00
10946;BME280;5525;42.648;23.368;2022-12-07T10:05:14;94553.22;;;9.91;100.00
10946;BME280;5525;42.648;23.368;2022-12-07T10:07:42;94549.91;;;9.85;100.00
10946;BME280;5525;42.648;23.368;2022-12-07T10:10:15;94540.31;;;10.13;100.00
10946;BME280;5525;42.648;23.368;2022-12-07T10:12:55;94546.13;;;10.33;100.00
10946;BME280;5525;42.648;23.368;2022-12-07T10:15:23;94524.78;;;10.10;100.00
10946;BME280;5525;42.648;23.368;2022-12-07T10:18:27;94530.56;;;10.30;100.00
10946;BME280;5525;42.648;23.368;2022-12-07T10:21:14;94534.59;;;10.53;100.00
10946;BME280;5525;42.648;23.368;2022-12-07T10:23:59;94482.84;;;10.21;100.00
10946;BME280;5525;42.648;23.368;2022-12-07T10:26:29;94528.94;;;10.66;100.00
10946;BME280;5525;42.648;23.368;2022-12-07T10:29:01;94530.69;;;10.91;100.00
10946;BME280;5525;42.648;23.368;2022-12-07T10:31:30;94512.75;;;11.07;100.00
10946;BME280;5525;42.648;23.368;2022-12-07T10:33:58;94525.03;;;11.05;100.00
10946;BME280;5525;42.648;23.368;2022-12-07T10:36:27;94512.84;;;11.52;100.00
10946;BME280;5525;42.648;23.368;2022-12-07T10:39:03;94477.19;;;11.38;100.00
10946;BME280;5525;42.648;23.368;2022-12-07T10:41:33;94496.41;;;11.57;100.00
10946;BME280;5525;42.648;23.368;2022-12-07T10:44:02;94513.63;;;11.73;100.00
10946;BME280;5525;42.648;23.368;2022-12-07T10:46:41;94453.97;;;11.37;100.00
10946;BME280;5525;42.648;23.368;2022-12-07T10:49:31;94501.78;;;11.45;100.00
10946;BME280;5525;42.648;23.368;2022-12-07T10:52:08;94449.31;;;10.52;100.00
10946;BME280;5525;42.648;23.368;2022-12-07T10:54:48;94504.91;;;11.14;100.00
10946;BME280;5525;42.648;23.368;2022-12-07T10:57:37;94485.88;;;11.43;100.00
10946;BME280;5525;42.648;23.368;2022-12-07T11:00:16;94460.50;;;11.24;100.00
10946;BME280;5525;42.648;23.368;2022-12-07T11:03:14;94472.59;;;11.50;100.00
10946;BME280;5525;42.648;23.368;2022-12-07T11:05:49;94431.66;;;11.28;100.00
10946;BME280;5525;42.648;23.368;2022-12-07T11:08:25;94461.06;;;11.29;100.00
10946;BME280;5525;42.648;23.368;2022-12-07T11:11:02;94466.69;;;11.36;100.00
10946;BME280;5525;42.648;23.368;2022-12-07T11:13:41;94415.06;;;10.85;100.00
10946;BME280;5525;42.648;23.368;2022-12-07T11:16:28;94480.53;;;10.82;100.00
10946;BME280;5525;42.648;23.368;2022-12-07T11:19:20;94441.22;;;10.93;100.00
10946;BME280;5525;42.648;23.368;2022-12-07T11:21:56;94471.50;;;10.98;100.00
10946;BME280;5525;42.648;23.368;2022-12-07T11:24:28;94453.13;;;10.92;100.00
10946;BME280;5525;42.648;23.368;2022-12-07T11:27:14;94440.97;;;10.15;100.00
10946;BME280;5525;42.648;23.368;2022-12-07T11:29:54;94458.84;;;10.29;100.00
10946;BME280;5525;42.648;23.368;2022-12-07T11:32:40;94423.25;;;10.56;100.00
10946;BME280;5525;42.648;23.368;2022-12-07T11:35:11;94427.56;;;10.69;100.00
10946;BME280;5525;42.648;23.368;2022-12-07T11:37:46;94430.28;;;10.69;100.00
10946;BME280;5525;42.648;23.368;2022-12-07T11:40:18;94405.34;;;10.51;100.00
10946;BME280;5525;42.648;23.368;2022-12-07T11:42:51;94434.56;;;10.49;100.00
10946;BME280;5525;42.648;23.368;2022-12-07T11:45:24;94421.00;;;10.37;100.00
10946;BME280;5525;42.648;23.368;2022-12-07T11:47:57;94371.66;;;10.07;100.00
10946;BME280;5525;42.648;23.368;2022-12-07T11:50:33;94425.41;;;10.42;100.00
10946;BME280;5525;42.648;23.368;2022-12-07T11:53:03;94416.25;;;10.05;100.00
10946;BME280;5525;42.648;23.368;2022-12-07T11:55:41;94421.34;;;9.98;100.00
10946;BME280;5525;42.648;23.368;2022-12-07T11:58:20;94386.69;;;9.50;100.00
10946;BME280;5525;42.648;23.368;2022-12-07T12:00:52;94379.78;;;9.41;100.00
10946;BME280;5525;42.648;23.368;2022-12-07T12:03:29;94424.63;;;10.12;100.00
10946;BME280;5525;42.648;23.368;2022-12-07T12:05:58;94380.53;;;9.79;100.00
10946;BME280;5525;42.648;23.368;2022-12-07T12:08:28;94415.09;;;9.85;100.00
10946;BME280;5525;42.648;23.368;2022-12-07T12:11:00;94380.41;;;9.38;100.00
10946;BME280;5525;42.648;23.368;2022-12-07T12:13:48;94406.94;;;9.94;100.00
10946;BME280;5525;42.648;23.368;2022-12-07T12:16:39;94378.66;;;10.00;100.00
10946;BME280;5525;42.648;23.368;2022-12-07T12:19:24;94378.78;;;10.12;100.00
10946;BME280;5525;42.648;23.368;2022-12-07T12:21:56;94391.16;;;9.84;100.00
10946;BME280;5525;42.648;23.368;2022-12-07T12:24:27;94390.22;;;10.09;100.00
10946;BME280;5525;42.648;23.368;2022-12-07T12:27:03;94394.41;;;10.27;100.00
10946;BME280;5525;42.648;23.368;2022-12-07T12:29:34;94375.44;;;10.89;100.00
10946;BME280;5525;42.648;23.368;2022-12-07T12:32:12;94379.66;;;11.55;100.00
10946;BME280;5525;42.648;23.368;2022-12-07T12:34:58;94371.34;;;11.03;100.00
10946;BME280;5525;42.648;23.368;2022-12-07T12:37:42;94378.13;;;11.09;100.00
10946;BME280;5525;42.648;23.368;2022-12-07T12:43:47;94371.31;;;11.24;100.00
10946;BME280;5525;42.648;23.368;2022-12-07T12:46:48;94363.22;;;11.60;100.00
10946;BME280;5525;42.648;23.368;2022-12-07T12:49:54;94336.59;;;11.14;100.00
10946;BME280;5525;42.648;23.368;2022-12-07T12:53:02;94368.00;;;12.90;98.38
10946;BME280;5525;42.648;23.368;2022-12-07T12:58:44;94340.34;;;13.55;84.34
10946;BME280;5525;42.648;23.368;2022-12-07T13:01:43;94366.28;;;14.69;77.71
10946;BME280;5525;42.648;23.368;2022-12-07T13:04:39;94362.19;;;15.16;72.21
10946;BME280;5525;42.648;23.368;2022-12-07T13:13:34;94362.59;;;16.28;63.19
10946;BME280;5525;42.648;23.368;2022-12-07T13:22:41;94356.78;;;16.29;60.13
10946;BME280;5525;42.648;23.368;2022-12-07T13:25:11;94376.13;;;15.53;63.44
10946;BME280;5525;42.648;23.368;2022-12-07T13:27:41;94346.34;;;13.18;76.60
10946;BME280;5525;42.648;23.368;2022-12-07T13:30:15;94345.94;;;12.76;85.71
10946;BME280;5525;42.648;23.368;2022-12-07T13:32:43;94319.47;;;12.58;88.25
10946;BME280;5525;42.648;23.368;2022-12-07T13:35:28;94351.72;;;13.02;87.58
10946;BME280;5525;42.648;23.368;2022-12-07T13:37:57;94330.38;;;13.01;85.21
10946;BME280;5525;42.648;23.368;2022-12-07T13:40:24;94354.41;;;13.45;83.55
10946;BME280;5525;42.648;23.368;2022-12-07T13:42:57;94322.03;;;13.21;83.14